< < Back
Terminal Aerodrome Forecast


Current Version              Previous Versions:   1  2  3  4  5  6  7  8  9  

Terminal Aerodrome Forecast

814
FTUS42 KTAE 221120
TAFTLH
TAF
KTLH 221120Z 2212/2312 10003KT P6SM SCT250
     FM221400 13005KT P6SM SCT040
     FM221900 18006KT P6SM VCTS BKN040CB
     FM222300 22005KT P6SM SCT250=



Latest METAR

844
SAUS80 KWBC 231100 RRA
MTRTLH
METAR KTLH 231053Z 00000KT 10SM BCFG FEW014TCU BKN250 23/22 A3002 RMK
AO2 SLP160 TCU S T02330222 $


USA.gov is the U.S. government's official web portal to all federal, state and local government web resources and services.